Time;durP1;ratioP1;P1;durP2;ratioP2;P2;SDS_P1;SDS_P2;PMS_P1;PMS_P2;Temp;Humidity;BMP_temperature;BMP_pressure;BME280_temperature;BME280_humidity;BME280_pressure;Samples;Min_cycle;Max_cycle;Signal;HPM_P1;HPM_P2
2023/01/22 00:00:17;;;;;;;2.13;2.00;;;;;;;4.35;nan;103230.22;6124763;28;20242;-73
2023/01/22 00:03:40;;;;;;;2.37;2.20;;;;;;;4.57;nan;103221.63;6090483;28;21687;-73
2023/01/22 00:07:03;;;;;;;3.97;2.73;;;;;;;4.48;nan;103221.00;6127643;28;20239;-74
2023/01/22 00:10:24;;;;;;;2.13;2.03;;;;;;;4.38;nan;103212.31;6100678;28;20234;-73
2023/01/22 00:13:46;;;;;;;2.77;2.37;;;;;;;4.31;nan;103215.19;6112902;28;20321;-74
2023/01/22 00:17:13;;;;;;;2.17;1.97;;;;;;;4.26;nan;103209.97;6109205;28;21315;-75
2023/01/22 00:20:37;;;;;;;3.00;2.77;;;;;;;4.25;nan;103218.91;6126784;28;20808;-74
2023/01/22 00:23:58;;;;;;;2.27;2.07;;;;;;;4.35;nan;103211.53;6091150;28;20272;-75
2023/01/22 00:27:19;;;;;;;2.40;2.20;;;;;;;4.24;nan;103217.13;6109238;28;20236;-74
2023/01/22 00:30:41;;;;;;;2.70;2.03;;;;;;;4.40;nan;103215.81;6127013;28;20243;-74
2023/01/22 00:34:03;;;;;;;2.37;2.17;;;;;;;4.42;nan;103213.16;6124467;28;20239;-74
2023/01/22 00:37:26;;;;;;;3.40;2.13;;;;;;;4.51;nan;103210.22;6118132;28;20238;-74
2023/01/22 00:40:47;;;;;;;2.50;2.30;;;;;;;4.46;nan;103204.13;6121785;28;20323;-73
2023/01/22 00:44:08;;;;;;;3.67;2.20;;;;;;;4.43;nan;103193.53;6107899;28;21023;-74
2023/01/22 00:47:34;;;;;;;2.47;2.33;;;;;;;4.31;nan;103200.06;6109648;28;20231;-74
2023/01/22 00:50:57;;;;;;;2.30;2.20;;;;;;;4.44;nan;103195.28;6118263;28;20251;-73
2023/01/22 00:54:22;;;;;;;2.30;2.10;;;;;;;4.39;nan;103198.06;6120575;28;20249;-75
2023/01/22 00:57:42;;;;;;;2.93;2.63;;;;;;;4.25;nan;103194.00;6130701;28;20239;-74
2023/01/22 01:01:05;;;;;;;3.30;2.60;;;;;;;4.36;nan;103203.47;6110259;28;20257;-73
2023/01/22 01:04:29;;;;;;;4.40;3.27;;;;;;;4.33;nan;103189.34;6129546;28;20679;-73
2023/01/22 01:07:50;;;;;;;3.40;2.20;;;;;;;4.47;nan;103196.06;6108355;28;20354;-73
2023/01/22 01:11:18;;;;;;;2.63;2.43;;;;;;;4.44;nan;103190.84;6106205;28;20235;-72
2023/01/22 01:14:39;;;;;;;2.83;1.97;;;;;;;4.39;nan;103186.50;6109367;28;20235;-73
2023/01/22 01:18:00;;;;;;;3.57;2.07;;;;;;;4.56;nan;103189.63;6122375;28;20504;-73
2023/01/22 01:21:21;;;;;;;2.07;1.93;;;;;;;4.46;nan;103188.13;6110271;28;20235;-74
2023/01/22 01:24:45;;;;;;;2.20;2.00;;;;;;;4.32;nan;103184.94;6119934;28;20241;-74
2023/01/22 01:28:12;;;;;;;2.20;2.00;;;;;;;4.36;nan;103182.13;6121913;28;20246;-74
2023/01/22 01:31:32;;;;;;;3.80;2.90;;;;;;;4.31;nan;103183.16;6114366;28;20235;-74
2023/01/22 01:34:53;;;;;;;2.43;2.20;;;;;;;4.32;nan;103187.59;6118419;28;20636;-73
2023/01/22 01:38:15;;;;;;;2.80;2.00;;;;;;;4.20;nan;103195.91;6075180;28;21418;-73
2023/01/22 01:41:36;;;;;;;4.13;3.33;;;;;;;4.56;nan;103185.16;6095853;28;20566;-74
2023/01/22 01:45:34;;;;;;;2.87;2.10;;;;;;;4.47;nan;103190.72;6072344;28;21531;-74
2023/01/22 01:48:57;;;;;;;2.67;1.93;;;;;;;4.55;nan;103183.38;6094630;28;20238;-73
2023/01/22 01:52:19;;;;;;;2.50;2.30;;;;;;;4.53;nan;103185.22;6109559;28;20698;-73
2023/01/22 01:55:40;;;;;;;2.80;2.40;;;;;;;4.46;nan;103185.44;6114945;28;20239;-73
2023/01/22 01:59:05;;;;;;;2.80;2.37;;;;;;;4.47;nan;103192.53;6102586;28;20246;-73
2023/01/22 02:02:26;;;;;;;3.27;2.63;;;;;;;4.47;nan;103180.06;6101977;28;20310;-73
2023/01/22 02:05:49;;;;;;;1.80;1.70;;;;;;;4.67;nan;103191.06;6126565;28;20246;-72
2023/01/22 02:09:12;;;;;;;7.47;2.20;;;;;;;4.69;nan;103183.03;6112461;28;20230;-74
2023/01/22 02:12:34;;;;;;;2.50;2.30;;;;;;;4.55;nan;103180.72;6113075;28;20246;-73
2023/01/22 02:15:58;;;;;;;2.23;2.03;;;;;;;4.61;nan;103180.53;6128445;28;20228;-74
2023/01/22 02:19:20;;;;;;;2.20;2.00;;;;;;;4.44;nan;103189.94;6119835;28;20238;-74
2023/01/22 02:22:42;;;;;;;3.30;2.57;;;;;;;4.58;nan;103193.13;6118462;28;20269;-74
2023/01/22 02:26:06;;;;;;;2.50;2.30;;;;;;;4.54;nan;103178.97;6119919;28;20475;-74
2023/01/22 02:29:27;;;;;;;3.17;2.37;;;;;;;4.60;nan;103180.59;6121761;28;20537;-74
2023/01/22 02:32:48;;;;;;;2.77;2.53;;;;;;;4.58;nan;103177.97;6102534;28;20811;-73
2023/01/22 02:36:09;;;;;;;2.30;2.10;;;;;;;4.34;nan;103183.09;6109019;28;20236;-73
2023/01/22 02:39:32;;;;;;;2.17;2.07;;;;;;;4.40;nan;103173.09;6112241;28;20238;-74
2023/01/22 02:42:55;;;;;;;2.00;1.90;;;;;;;4.38;nan;103169.59;6090828;29;20235;-73
2023/01/22 02:46:17;;;;;;;2.00;1.90;;;;;;;4.37;nan;103173.22;6108206;28;20246;-73
2023/01/22 02:49:38;;;;;;;2.60;1.97;;;;;;;4.44;nan;103176.59;6096929;28;20251;-74
2023/01/22 02:52:59;;;;;;;2.23;2.00;;;;;;;4.26;nan;103169.03;6102178;28;20227;-74
2023/01/22 02:56:22;;;;;;;2.87;2.57;;;;;;;4.41;nan;103180.22;6092923;28;20239;-73
2023/01/22 02:59:43;;;;;;;2.53;2.20;;;;;;;4.44;nan;103174.81;6129375;28;20230;-73
2023/01/22 03:03:07;;;;;;;6.00;3.47;;;;;;;4.52;nan;103174.59;6098243;28;20255;-73
2023/01/22 03:06:29;;;;;;;2.37;1.60;;;;;;;4.60;nan;103173.47;6119217;28;20239;-73
2023/01/22 03:09:54;;;;;;;3.00;2.73;;;;;;;4.61;nan;103177.88;6131388;28;20266;-73
2023/01/22 03:24:14;;;;;;;1.87;1.77;;;;;;;4.47;nan;103165.81;6102010;28;20243;-73
2023/01/22 03:27:36;;;;;;;2.83;2.63;;;;;;;4.51;nan;103163.03;6123796;28;20242;-73
2023/01/22 03:30:59;;;;;;;3.47;3.10;;;;;;;4.29;nan;103166.31;6093149;28;20236;-73
2023/01/22 03:34:22;;;;;;;2.93;2.70;;;;;;;4.32;nan;103160.91;6123011;28;20314;-73
2023/01/22 03:37:44;;;;;;;2.27;2.07;;;;;;;4.41;nan;103150.84;6120157;28;20235;-73
2023/01/22 03:41:07;;;;;;;3.60;2.67;;;;;;;4.30;nan;103155.59;6086764;28;20236;-73
2023/01/22 03:44:27;;;;;;;5.63;2.50;;;;;;;4.39;nan;103146.47;6125248;28;20226;-73
2023/01/22 03:47:53;;;;;;;2.33;2.20;;;;;;;4.50;nan;103158.63;6102546;28;20342;-73
2023/01/22 03:51:24;;;;;;;2.70;2.50;;;;;;;4.55;nan;103148.66;6097279;28;20234;-73
2023/01/22 03:54:45;;;;;;;1.60;1.50;;;;;;;4.57;nan;103143.28;6122838;28;20234;-74
2023/01/22 03:58:06;;;;;;;2.03;1.83;;;;;;;4.59;nan;103157.50;6134070;28;20238;-73
2023/01/22 04:01:28;;;;;;;2.40;1.90;;;;;;;4.59;nan;103150.34;6112285;28;20657;-73
2023/01/22 04:04:54;;;;;;;5.60;2.33;;;;;;;4.45;nan;103156.97;6137360;28;20438;-72
2023/01/22 04:08:15;;;;;;;2.80;2.30;;;;;;;4.48;nan;103160.47;6114271;28;20244;-73
2023/01/22 04:11:37;;;;;;;3.73;2.27;;;;;;;4.40;nan;103156.22;6107001;28;20266;-74
2023/01/22 04:15:02;;;;;;;2.30;2.17;;;;;;;4.44;nan;103168.59;6107467;28;20620;-74
2023/01/22 04:18:24;;;;;;;2.17;1.97;;;;;;;4.46;nan;103158.75;6106197;28;20357;-73
2023/01/22 04:22:02;;;;;;;2.37;1.90;;;;;;;4.56;nan;103157.56;6122296;28;20250;-73
2023/01/22 04:25:23;;;;;;;3.77;1.70;;;;;;;4.61;nan;103161.00;6130845;28;20238;-73
2023/01/22 04:28:44;;;;;;;1.77;1.63;;;;;;;4.33;nan;103159.97;6129869;28;20785;-72
2023/01/22 04:32:06;;;;;;;3.47;2.27;;;;;;;4.37;nan;103158.97;6122724;28;21642;-73
2023/01/22 04:35:51;;;;;;;4.47;2.07;;;;;;;4.38;nan;103158.91;6107519;28;20235;-74
2023/01/22 04:39:13;;;;;;;6.43;2.27;;;;;;;4.34;nan;103151.91;6127680;28;20234;-73
2023/01/22 04:42:34;;;;;;;2.67;2.50;;;;;;;4.32;nan;103151.06;6120417;28;20243;-73
2023/01/22 04:45:55;;;;;;;10.40;2.47;;;;;;;4.35;nan;103142.13;6115550;28;20231;-73
2023/01/22 04:49:22;;;;;;;4.63;2.00;;;;;;;4.50;nan;103142.59;6122565;28;20234;-72
2023/01/22 04:52:45;;;;;;;1.93;1.73;;;;;;;4.57;nan;103137.94;6132973;28;20231;-73
2023/01/22 04:56:08;;;;;;;2.03;1.87;;;;;;;4.40;nan;103143.75;6103315;28;20235;-74
2023/01/22 04:59:28;;;;;;;2.40;2.00;;;;;;;4.42;nan;103143.72;6094015;28;20281;-73
2023/01/22 05:02:50;;;;;;;2.83;2.50;;;;;;;4.39;nan;103144.66;6114853;28;20239;-73
2023/01/22 05:06:12;;;;;;;1.83;1.60;;;;;;;4.35;nan;103148.34;6121446;28;20254;-73
2023/01/22 05:09:33;;;;;;;3.40;3.10;;;;;;;4.28;nan;103154.75;6119932;28;21240;-73
2023/01/22 05:12:56;;;;;;;2.03;1.83;;;;;;;4.57;nan;103145.94;6114145;28;20235;-73
2023/01/22 05:16:20;;;;;;;2.43;2.23;;;;;;;4.62;nan;103141.38;6118711;28;20235;-74
2023/01/22 05:19:41;;;;;;;2.07;1.87;;;;;;;4.60;nan;103154.78;6128641;28;20238;-73
2023/01/22 05:23:06;;;;;;;3.60;3.30;;;;;;;4.67;nan;103144.81;6128040;28;20325;-74
2023/01/22 05:26:27;;;;;;;2.00;1.90;;;;;;;4.72;nan;103141.06;6116167;28;20227;-74
2023/01/22 05:29:55;;;;;;;2.57;2.27;;;;;;;4.76;nan;103144.53;6112311;28;20230;-74
2023/01/22 05:33:35;;;;;;;2.43;2.23;;;;;;;4.52;nan;103146.09;6103567;28;20616;-72
2023/01/22 05:36:57;;;;;;;2.73;2.23;;;;;;;4.52;nan;103147.88;6109996;28;20235;-74
2023/01/22 05:40:20;;;;;;;2.23;1.93;;;;;;;4.64;nan;103137.75;6115042;28;23320;-72
2023/01/22 05:43:41;;;;;;;5.17;3.20;;;;;;;4.77;nan;103133.81;6095946;28;20239;-73
2023/01/22 05:47:08;;;;;;;2.20;2.00;;;;;;;4.87;nan;103137.09;6111402;28;20238;-72
2023/01/22 05:50:55;;;;;;;5.43;2.67;;;;;;;5.05;nan;103146.38;6096784;28;20239;-74
2023/01/22 05:54:17;;;;;;;1.87;1.50;;;;;;;4.86;nan;103149.56;6120074;28;20239;-74
2023/01/22 05:57:40;;;;;;;2.43;2.23;;;;;;;4.60;nan;103154.78;6124291;28;20239;-72
2023/01/22 06:01:01;;;;;;;3.70;1.40;;;;;;;4.57;nan;103145.94;6120922;28;20247;-74
2023/01/22 06:04:29;;;;;;;2.00;1.90;;;;;;;4.64;nan;103160.91;6100456;28;20235;-73
2023/01/22 06:07:52;;;;;;;4.17;2.10;;;;;;;4.69;nan;103159.84;6117230;28;20239;-73
2023/01/22 06:11:15;;;;;;;2.50;2.07;;;;;;;4.83;nan;103160.34;6110995;28;20239;-73
2023/01/22 06:14:39;;;;;;;2.57;2.00;;;;;;;4.81;nan;103159.53;6118086;28;20235;-74
2023/01/22 06:18:01;;;;;;;1.93;1.73;;;;;;;4.74;nan;103157.94;6122183;28;20235;-73
2023/01/22 06:21:23;;;;;;;1.73;1.63;;;;;;;4.88;nan;103157.56;6120517;28;20621;-73
2023/01/22 06:24:45;;;;;;;2.83;2.53;;;;;;;4.86;nan;103157.56;6115797;28;20649;-73
2023/01/22 06:28:07;;;;;;;2.77;2.27;;;;;;;4.57;nan;103162.84;6104006;28;20236;-73
2023/01/22 06:31:30;;;;;;;2.73;2.17;;;;;;;4.77;nan;103156.97;6098880;28;20637;-74
2023/01/22 06:34:51;;;;;;;2.97;2.53;;;;;;;4.65;nan;103147.50;6113455;28;20242;-73
2023/01/22 06:38:14;;;;;;;3.47;2.40;;;;;;;4.76;nan;103152.53;6128910;28;20243;-72
2023/01/22 06:41:35;;;;;;;3.50;1.97;;;;;;;4.68;nan;103149.22;6102277;28;20231;-73
2023/01/22 06:44:58;;;;;;;2.07;1.97;;;;;;;4.88;nan;103156.69;6091134;28;21958;-74
2023/01/22 06:48:22;;;;;;;2.67;2.30;;;;;;;4.74;nan;103154.38;6118095;28;20231;-73
2023/01/22 06:51:43;;;;;;;4.70;2.70;;;;;;;4.85;nan;103153.16;6114141;28;20239;-73
2023/01/22 06:55:08;;;;;;;3.20;2.03;;;;;;;4.76;nan;103169.44;6126003;28;21157;-72
2023/01/22 06:58:32;;;;;;;4.10;2.53;;;;;;;4.88;nan;103170.91;6112844;28;20253;-72
2023/01/22 07:01:52;;;;;;;1.67;1.53;;;;;;;4.82;nan;103174.63;6105071;28;20235;-73
2023/01/22 07:05:14;;;;;;;2.90;2.17;;;;;;;4.80;nan;103187.16;6098680;28;20235;-73
2023/01/22 07:08:35;;;;;;;2.67;2.47;;;;;;;4.85;nan;103174.53;6096860;28;20318;-72
2023/01/22 07:11:59;;;;;;;2.70;2.57;;;;;;;4.91;nan;103191.31;6107107;28;20281;-73
2023/01/22 07:15:21;;;;;;;2.77;2.57;;;;;;;4.81;nan;103185.34;6110101;28;20231;-73
2023/01/22 07:18:42;;;;;;;4.67;2.57;;;;;;;4.86;nan;103186.97;6102200;28;20242;-73
2023/01/22 07:22:03;;;;;;;4.40;2.70;;;;;;;4.81;nan;103188.03;6107103;28;20235;-73
2023/01/22 07:25:25;;;;;;;4.07;2.63;;;;;;;4.92;nan;103190.41;6089518;28;21405;-74
2023/01/22 07:28:48;;;;;;;2.60;2.40;;;;;;;4.95;nan;103190.28;6081625;28;20235;-72
2023/01/22 07:32:09;;;;;;;3.10;2.90;;;;;;;5.00;nan;103194.63;6101845;28;20354;-73
2023/01/22 07:35:30;;;;;;;3.80;2.47;;;;;;;4.91;nan;103192.19;6094099;28;20243;-73
2023/01/22 07:38:51;;;;;;;3.47;2.17;;;;;;;4.94;nan;103196.56;6081771;28;20258;-73
2023/01/22 07:42:12;;;;;;;5.47;2.27;;;;;;;5.10;nan;103203.22;6109121;28;20232;-72
2023/01/22 07:45:34;;;;;;;12.30;2.23;;;;;;;5.03;nan;103204.34;6097258;28;20605;-72
2023/01/22 07:48:55;;;;;;;17.13;3.53;;;;;;;4.96;nan;103202.75;6093770;28;20599;-73
2023/01/22 07:52:16;;;;;;;6.80;4.27;;;;;;;4.98;nan;103206.25;6131695;28;20281;-72
2023/01/22 07:55:37;;;;;;;4.17;2.10;;;;;;;5.11;nan;103210.34;6097672;28;22215;-73
2023/01/22 07:58:58;;;;;;;2.30;2.10;;;;;;;5.07;nan;103217.56;6085249;28;20251;-73
2023/01/22 08:02:21;;;;;;;5.23;2.27;;;;;;;5.04;nan;103219.44;6095712;28;20746;-73
2023/01/22 08:05:42;;;;;;;3.40;2.37;;;;;;;5.02;nan;103229.31;6114167;28;20242;-73
2023/01/22 08:09:05;;;;;;;5.73;2.97;;;;;;;5.06;nan;103215.81;6105662;28;20226;-73
2023/01/22 08:12:26;;;;;;;4.80;2.00;;;;;;;4.96;nan;103230.38;6122996;28;20227;-73
2023/01/22 08:15:46;;;;;;;5.30;2.53;;;;;;;4.89;nan;103236.78;6115157;28;20242;-73
2023/01/22 08:19:09;;;;;;;9.33;4.27;;;;;;;5.31;nan;103243.59;6112644;28;20302;-73
2023/01/22 08:22:30;;;;;;;5.63;2.60;;;;;;;5.11;nan;103248.63;6125923;28;20617;-74
2023/01/22 08:25:51;;;;;;;3.13;1.63;;;;;;;5.24;nan;103246.47;6116805;28;20235;-73
2023/01/22 08:29:12;;;;;;;4.10;2.43;;;;;;;4.93;nan;103246.47;6108379;28;20588;-74
2023/01/22 08:32:33;;;;;;;2.50;2.30;;;;;;;4.95;nan;103249.09;6099284;28;20518;-73
2023/01/22 08:35:55;;;;;;;5.17;2.17;;;;;;;5.24;nan;103254.50;6101255;28;20238;-72
2023/01/22 08:39:16;;;;;;;4.07;2.83;;;;;;;5.10;nan;103256.69;6123250;28;20254;-71
2023/01/22 08:42:37;;;;;;;3.23;2.13;;;;;;;5.02;nan;103250.69;6136671;28;20251;-70
2023/01/22 08:45:58;;;;;;;5.63;1.83;;;;;;;5.02;nan;103254.25;6108687;28;20255;-72
2023/01/22 08:49:20;;;;;;;4.67;1.97;;;;;;;5.00;nan;103250.75;6121269;28;20337;-72
2023/01/22 08:52:42;;;;;;;2.37;2.17;;;;;;;5.17;nan;103258.28;6110394;28;20727;-71
2023/01/22 08:56:03;;;;;;;6.23;2.93;;;;;;;5.26;nan;103258.00;6130274;28;21126;-71
2023/01/22 08:59:24;;;;;;;4.73;4.10;;;;;;;5.05;nan;103264.84;6121173;28;20309;-71
2023/01/22 09:02:45;;;;;;;4.30;2.70;;;;;;;5.30;nan;103254.34;6095334;28;20372;-72
2023/01/22 09:06:06;;;;;;;2.77;2.57;;;;;;;5.27;nan;103254.44;6104875;28;20325;-72
2023/01/22 09:09:28;;;;;;;1.70;1.60;;;;;;;5.45;nan;103265.47;6117294;28;20234;-74
2023/01/22 09:12:49;;;;;;;2.23;1.70;;;;;;;5.21;nan;103270.66;6124009;28;20665;-71
2023/01/22 09:16:10;;;;;;;2.97;1.80;;;;;;;5.27;nan;103266.00;6105333;28;20232;-71
2023/01/22 09:19:31;;;;;;;1.73;1.63;;;;;;;5.27;nan;103260.66;6093273;28;20243;-73
2023/01/22 09:22:52;;;;;;;2.37;1.80;;;;;;;5.18;nan;103258.22;6106937;28;20235;-72
2023/01/22 09:26:15;;;;;;;2.60;2.37;;;;;;;5.24;nan;103266.06;6128226;28;20246;-71
2023/01/22 09:29:36;;;;;;;3.50;3.20;;;;;;;5.35;nan;103253.28;6105381;28;20230;-71
2023/01/22 09:32:57;;;;;;;2.53;2.30;;;;;;;5.49;nan;103258.22;6112941;28;20258;-73
2023/01/22 09:36:18;;;;;;;2.13;1.90;;;;;;;5.59;nan;103262.41;6125481;28;20721;-72
2023/01/22 09:39:39;;;;;;;2.50;2.30;;;;;;;5.47;nan;103257.38;6105911;28;20254;-71
2023/01/22 09:43:05;;;;;;;1.80;1.70;;;;;;;5.34;nan;103256.00;6122365;28;20235;-72
2023/01/22 09:46:30;;;;;;;1.93;1.80;;;;;;;5.36;nan;103254.19;6104861;28;20244;-70
2023/01/22 09:49:55;;;;;;;2.93;2.27;;;;;;;5.45;nan;103262.78;6106225;28;20551;-71
2023/01/22 09:53:19;;;;;;;2.57;2.10;;;;;;;5.53;nan;103263.44;6117067;28;20239;-71
2023/01/22 09:56:43;;;;;;;4.60;1.80;;;;;;;5.59;nan;103262.41;6087489;28;20239;-70
2023/01/22 10:00:15;;;;;;;2.10;1.87;;;;;;;5.65;nan;103262.22;6113276;28;20222;-70
2023/01/22 10:03:41;;;;;;;3.83;2.07;;;;;;;5.80;nan;103268.91;6096414;28;20239;-71
2023/01/22 10:07:06;;;;;;;7.67;2.23;;;;;;;5.61;nan;103264.09;6108461;28;20235;-71
2023/01/22 10:10:28;;;;;;;3.83;2.77;;;;;;;5.68;nan;103271.00;6112426;28;20317;-71
2023/01/22 10:13:53;;;;;;;5.87;2.50;;;;;;;5.62;nan;103264.97;6091899;28;21879;-71
2023/01/22 10:17:20;;;;;;;2.33;2.23;;;;;;;5.92;nan;103257.84;6114065;28;20238;-71
2023/01/22 10:20:41;;;;;;;8.00;2.23;;;;;;;5.76;nan;103253.88;6121107;28;20234;-71
2023/01/22 10:24:02;;;;;;;4.27;1.97;;;;;;;5.69;nan;103256.69;6100381;28;20669;-70
2023/01/22 10:27:31;;;;;;;4.70;2.37;;;;;;;6.15;nan;103252.63;6108247;28;20239;-72
2023/01/22 10:30:56;;;;;;;6.17;2.63;;;;;;;5.92;nan;103255.16;6114727;28;20402;-71
2023/01/22 10:34:26;;;;;;;5.27;3.23;;;;;;;6.15;nan;103250.81;6107003;28;20234;-71
2023/01/22 10:37:48;;;;;;;6.67;4.10;;;;;;;6.43;nan;103237.38;6134714;28;20608;-71
2023/01/22 10:41:17;;;;;;;4.13;3.17;;;;;;;6.18;nan;103234.66;6101169;28;20240;-71
2023/01/22 10:44:38;;;;;;;4.32;3.38;;;;;;;7.67;nan;103235.50;6112118;28;20759;-73
2023/01/22 10:48:11;;;;;;;19.53;13.57;;;;;;;7.93;nan;103227.28;6114732;28;20234;-72
2023/01/22 10:51:36;;;;;;;78.97;47.87;;;;;;;8.07;nan;103228.50;6127657;28;20235;-70
2023/01/22 10:54:59;;;;;;;71.27;64.70;;;;;;;8.34;nan;103231.03;6127141;28;20238;-69
2023/01/22 10:58:23;;;;;;;411.00;315.10;;;;;;;8.60;nan;103228.97;6135644;28;21758;-69
2023/01/22 11:01:44;;;;;;;144.00;131.03;;;;;;;9.08;nan;103230.44;6119739;28;20242;-68
2023/01/22 11:05:16;;;;;;;224.30;159.60;;;;;;;8.68;nan;103229.50;6108825;28;20246;-71
2023/01/22 11:08:47;;;;;;;35.73;25.50;;;;;;;8.01;nan;103223.38;6116171;28;20235;-69
2023/01/22 11:12:15;;;;;;;3.10;2.70;;;;;;;7.89;nan;103226.56;6107801;28;20235;-70
2023/01/22 11:15:42;;;;;;;2.37;2.17;;;;;;;7.44;nan;103225.66;6121188;28;20402;-71
2023/01/22 11:19:09;;;;;;;2.83;1.73;;;;;;;7.21;nan;103222.97;6083243;28;20357;-70
2023/01/22 11:22:35;;;;;;;2.97;2.07;;;;;;;7.10;nan;103217.13;6107037;28;20235;-71
2023/01/22 11:26:05;;;;;;;1.70;1.53;;;;;;;7.09;nan;103218.06;6114170;28;20247;-70
2023/01/22 11:29:55;;;;;;;2.70;2.30;;;;;;;6.99;nan;103217.50;6100952;28;20246;-71
2023/01/22 11:33:28;;;;;;;5.07;3.57;;;;;;;7.07;nan;103215.44;6106211;28;20352;-71
2023/01/22 11:36:55;;;;;;;4.83;4.17;;;;;;;6.99;nan;103222.00;6122629;28;20270;-69
2023/01/22 11:40:24;;;;;;;5.67;2.63;;;;;;;7.00;nan;103215.72;6119386;28;20238;-71
2023/01/22 11:44:11;;;;;;;3.20;2.10;;;;;;;6.88;nan;103219.72;6103021;28;20321;-71
2023/01/22 11:48:03;;;;;;;1.90;1.43;;;;;;;6.92;nan;103209.75;6117308;28;20262;-72
2023/01/22 11:51:32;;;;;;;2.27;2.07;;;;;;;6.82;nan;103201.16;6088232;28;20236;-72
2023/01/22 11:55:08;;;;;;;4.43;2.57;;;;;;;6.95;nan;103201.59;6080784;28;20636;-71
2023/01/22 11:58:45;;;;;;;3.43;1.93;;;;;;;6.76;nan;103201.38;6091951;28;20240;-70
2023/01/22 12:02:28;;;;;;;2.40;1.40;;;;;;;6.76;nan;103200.53;6107877;28;20239;-70
2023/01/22 12:05:57;;;;;;;2.33;1.90;;;;;;;6.91;nan;103194.59;6098678;28;20819;-71
2023/01/22 12:09:23;;;;;;;2.57;2.37;;;;;;;6.76;nan;103197.84;6072166;28;20270;-71
2023/01/22 12:12:56;;;;;;;4.13;1.70;;;;;;;6.65;nan;103200.03;6094073;28;20897;-71
2023/01/22 12:16:23;;;;;;;1.90;1.70;;;;;;;7.09;nan;103201.97;6096183;28;20235;-71
2023/01/22 12:20:14;;;;;;;2.93;1.87;;;;;;;7.00;nan;103197.84;6089242;29;20244;-72
2023/01/22 12:23:42;;;;;;;7.40;2.30;;;;;;;6.97;nan;103208.66;6092457;28;20270;-69
2023/01/22 12:27:08;;;;;;;3.57;2.13;;;;;;;8.18;nan;103197.66;6098006;29;20591;-73
2023/01/22 12:30:38;;;;;;;3.70;2.17;;;;;;;7.91;nan;103200.50;6108822;28;20626;-72
2023/01/22 12:34:02;;;;;;;5.57;2.83;;;;;;;7.35;nan;103196.50;6097700;28;20242;-71
2023/01/22 12:37:28;;;;;;;5.50;3.67;;;;;;;7.33;nan;103194.81;6115637;28;20263;-71
2023/01/22 12:41:08;;;;;;;2.63;1.53;;;;;;;7.19;nan;103198.03;6108082;28;20852;-72
2023/01/22 12:44:38;;;;;;;3.43;3.17;;;;;;;7.38;nan;103200.88;6096631;28;20908;-71
2023/01/22 12:48:10;;;;;;;1.87;1.50;;;;;;;7.22;nan;103203.25;6100638;28;20240;-70
2023/01/22 12:51:39;;;;;;;6.57;1.73;;;;;;;7.12;nan;103199.16;6092863;28;20617;-71
2023/01/22 12:55:03;;;;;;;2.23;1.90;;;;;;;7.43;nan;103194.38;6095163;28;20580;-71
2023/01/22 12:58:26;;;;;;;2.43;1.47;;;;;;;7.98;nan;103198.44;6115226;28;20255;-72
2023/01/22 13:01:57;;;;;;;2.37;1.80;;;;;;;7.61;nan;103204.44;6080300;28;20236;-70
2023/01/22 13:05:22;;;;;;;3.13;2.83;;;;;;;7.24;nan;103196.03;6093561;28;20634;-73
2023/01/22 13:08:44;;;;;;;1.93;1.83;;;;;;;7.29;nan;103194.06;6107858;28;20231;-72
2023/01/22 13:12:10;;;;;;;2.87;1.77;;;;;;;7.36;nan;103197.38;6133179;28;20234;-74
2023/01/22 13:15:34;;;;;;;2.90;1.80;;;;;;;7.51;nan;103204.84;6128619;28;20234;-73
2023/01/22 13:18:56;;;;;;;4.20;3.33;;;;;;;7.59;nan;103208.97;6109052;28;20250;-74
2023/01/22 13:22:20;;;;;;;1.70;1.57;;;;;;;7.42;nan;103200.72;6109767;28;20240;-71
2023/01/22 13:25:42;;;;;;;4.90;2.37;;;;;;;7.52;nan;103204.78;6106478;28;20235;-73
2023/01/22 13:29:17;;;;;;;3.27;1.63;;;;;;;7.63;nan;103207.94;6076860;29;20657;-72
2023/01/22 13:32:41;;;;;;;2.77;2.20;;;;;;;7.66;nan;103205.09;6077953;28;20231;-71
2023/01/22 13:36:09;;;;;;;2.57;1.73;;;;;;;7.54;nan;103210.06;6085316;28;20327;-71
2023/01/22 13:39:32;;;;;;;2.93;1.63;;;;;;;7.26;nan;103212.94;6087553;28;20322;-71
2023/01/22 13:42:53;;;;;;;1.87;1.37;;;;;;;7.46;nan;103212.19;6130488;28;20235;-73
2023/01/22 13:46:16;;;;;;;1.50;1.40;;;;;;;7.28;nan;103219.13;6119607;28;20263;-71
2023/01/22 13:49:42;;;;;;;2.60;1.50;;;;;;;7.27;nan;103214.69;6105073;28;20569;-72
2023/01/22 13:53:04;;;;;;;4.37;1.60;;;;;;;7.26;nan;103218.28;6114961;28;21976;-70
2023/01/22 13:56:26;;;;;;;5.60;2.17;;;;;;;7.39;nan;103227.66;6120631;28;20276;-72
2023/01/22 13:59:52;;;;;;;1.97;1.60;;;;;;;7.32;nan;103233.31;6121531;28;20246;-70
2023/01/22 14:03:24;;;;;;;2.37;1.97;;;;;;;7.20;nan;103230.13;6122691;28;21744;-71
2023/01/22 14:06:48;;;;;;;3.23;1.50;;;;;;;7.22;nan;103227.41;6122982;28;20326;-71
2023/01/22 14:10:14;;;;;;;4.57;1.87;;;;;;;7.15;nan;103232.09;6127005;28;20240;-71
2023/01/22 14:13:40;;;;;;;2.53;1.47;;;;;;;7.25;nan;103229.97;6122140;28;21122;-72
2023/01/22 14:17:01;;;;;;;1.83;1.63;;;;;;;7.49;nan;103231.72;6126501;28;20322;-72
2023/01/22 14:20:23;;;;;;;2.33;2.13;;;;;;;7.30;nan;103241.41;6122671;28;20239;-72
2023/01/22 14:23:45;;;;;;;3.17;1.93;;;;;;;7.33;nan;103241.28;6117101;28;20230;-71
2023/01/22 14:27:05;;;;;;;2.80;1.77;;;;;;;7.28;nan;103245.09;6137188;28;20231;-71
2023/01/22 14:30:27;;;;;;;4.97;3.60;;;;;;;7.22;nan;103246.16;6118075;28;20236;-71
2023/01/22 14:33:48;;;;;;;2.90;2.70;;;;;;;7.22;nan;103246.16;6096257;28;20236;-72
2023/01/22 14:37:14;;;;;;;2.17;2.00;;;;;;;7.24;nan;103252.34;6119136;28;20733;-72
2023/01/22 14:40:35;;;;;;;1.87;1.77;;;;;;;7.24;nan;103250.56;6109180;28;20235;-73
2023/01/22 14:43:56;;;;;;;2.60;1.87;;;;;;;7.12;nan;103255.50;6097570;28;20235;-72
2023/01/22 14:47:17;;;;;;;2.87;1.80;;;;;;;6.99;nan;103263.09;6116913;28;20263;-71
2023/01/22 14:50:39;;;;;;;1.53;1.40;;;;;;;7.20;nan;103259.66;6105859;28;20239;-72
2023/01/22 14:54:01;;;;;;;4.20;1.27;;;;;;;7.27;nan;103265.66;6101421;28;20341;-72
2023/01/22 14:57:22;;;;;;;2.03;1.80;;;;;;;7.24;nan;103265.75;6115834;29;20240;-72
2023/01/22 15:00:43;;;;;;;3.77;2.10;;;;;;;7.15;nan;103271.47;6109628;28;20626;-71
2023/01/22 15:04:04;;;;;;;1.40;1.30;;;;;;;6.93;nan;103271.38;6098864;28;20247;-72
2023/01/22 15:07:25;;;;;;;4.43;2.17;;;;;;;7.00;nan;103278.28;6113920;28;20681;-72
2023/01/22 15:10:47;;;;;;;7.77;2.50;;;;;;;6.96;nan;103281.13;6105811;28;21403;-73
2023/01/22 15:14:08;;;;;;;3.37;2.53;;;;;;;7.20;nan;103286.47;6101640;28;20243;-73
2023/01/22 15:17:29;;;;;;;5.67;1.90;;;;;;;7.08;nan;103283.34;6115060;28;20236;-71
2023/01/22 15:20:50;;;;;;;1.20;1.20;;;;;;;6.95;nan;103293.63;6107025;28;20223;-72
2023/01/22 15:24:11;;;;;;;5.00;2.70;;;;;;;6.91;nan;103294.69;6101031;28;20632;-72
2023/01/22 15:27:33;;;;;;;6.00;2.20;;;;;;;6.98;nan;103303.38;6109427;28;20510;-72
2023/01/22 15:30:55;;;;;;;1.30;1.20;;;;;;;6.70;nan;103295.41;6108416;28;20348;-71
2023/01/22 15:34:16;;;;;;;2.53;1.00;;;;;;;6.76;nan;103302.38;6104362;28;20239;-72
2023/01/22 15:37:37;;;;;;;1.40;1.13;;;;;;;6.75;nan;103308.66;6114728;29;20228;-72
2023/01/22 15:41:06;;;;;;;2.70;1.27;;;;;;;6.85;nan;103312.78;6113132;29;20322;-73
2023/01/22 15:44:28;;;;;;;3.43;2.30;;;;;;;6.98;nan;103301.59;6107298;28;20235;-72
2023/01/22 15:47:49;;;;;;;1.10;1.10;;;;;;;7.04;nan;103314.78;6120606;28;20741;-72
2023/01/22 15:51:12;;;;;;;2.13;1.30;;;;;;;6.99;nan;103319.41;6117855;28;20236;-73
2023/01/22 15:54:33;;;;;;;1.30;1.20;;;;;;;6.90;nan;103326.91;6130228;28;20671;-72
2023/01/22 15:57:53;;;;;;;3.13;1.93;;;;;;;6.86;nan;103327.94;6135999;28;20314;-71
2023/01/22 16:01:16;;;;;;;1.93;1.60;;;;;;;6.91;nan;103332.22;6100457;28;20307;-71
2023/01/22 16:04:36;;;;;;;1.77;1.30;;;;;;;6.91;nan;103328.66;6097617;28;20230;-72
2023/01/22 16:07:57;;;;;;;1.53;1.27;;;;;;;6.91;nan;103336.69;6104223;28;20260;-72
2023/01/22 16:11:19;;;;;;;1.97;0.97;;;;;;;6.82;nan;103334.34;6127337;28;20331;-72
2023/01/22 16:14:40;;;;;;;1.80;1.20;;;;;;;6.81;nan;103335.25;6113667;28;20530;-72
2023/01/22 16:18:02;;;;;;;5.10;1.30;;;;;;;6.90;nan;103345.69;6123630;28;20224;-72
2023/01/22 16:21:24;;;;;;;2.60;1.27;;;;;;;6.79;nan;103343.34;6112063;28;20236;-73
2023/01/22 16:24:44;;;;;;;4.47;2.53;;;;;;;6.67;nan;103340.22;6129572;28;20231;-72
2023/01/22 16:28:05;;;;;;;2.70;1.70;;;;;;;6.73;nan;103340.00;6136597;28;20243;-72
2023/01/22 16:31:28;;;;;;;1.87;1.77;;;;;;;6.57;nan;103339.63;6106859;28;20239;-72